createdAt,value
2022-09-03T00:01:11.084Z,3.80
2022-09-03T00:04:02.086Z,4.60
2022-09-03T00:06:38.446Z,2.08
2022-09-03T00:09:25.055Z,5.38
2022-09-03T00:11:56.100Z,2.33
2022-09-03T00:14:39.420Z,2.80
2022-09-03T00:17:16.475Z,3.55
2022-09-03T00:19:59.445Z,2.90
2022-09-03T00:22:34.624Z,2.47
2022-09-03T00:25:10.977Z,1.75
2022-09-03T00:27:41.331Z,2.47
2022-09-03T00:30:17.112Z,2.72
2022-09-03T00:33:10.735Z,2.38
2022-09-03T00:35:50.581Z,2.33
2022-09-03T00:38:17.752Z,2.85
2022-09-03T00:41:23.033Z,2.45
2022-09-03T00:44:13.256Z,1.13
2022-09-03T00:46:57.093Z,1.08
2022-09-03T00:49:30.602Z,2.45
2022-09-03T00:52:00.640Z,2.10
2022-09-03T00:54:36.560Z,1.70
2022-09-03T00:57:36.836Z,2.63
2022-09-03T01:00:13.700Z,2.08
2022-09-03T01:02:56.853Z,2.40
2022-09-03T01:05:41.762Z,2.83
2022-09-03T01:08:32.172Z,2.17
2022-09-03T01:11:10.510Z,1.20
2022-09-03T01:13:50.172Z,7.72
2022-09-03T01:16:29.312Z,2.58
2022-09-03T01:19:11.904Z,3.05
2022-09-03T01:21:58.290Z,4.32
2022-09-03T01:24:31.771Z,3.00
2022-09-03T01:27:23.161Z,3.08
2022-09-03T01:30:04.256Z,2.75
2022-09-03T01:32:45.088Z,2.28
2022-09-03T01:35:16.431Z,4.68
2022-09-03T01:37:51.672Z,1.60
2022-09-03T01:40:54.172Z,1.90
2022-09-03T01:43:35.987Z,3.70
2022-09-03T01:46:25.175Z,8.40
2022-09-03T01:49:26.777Z,1.50
2022-09-03T01:52:29.718Z,1.40
2022-09-03T01:55:15.172Z,2.58
2022-09-03T01:57:47.739Z,2.28
2022-09-03T02:00:20.589Z,1.92
2022-09-03T02:02:52.285Z,1.30
2022-09-03T02:05:29.973Z,1.20
2022-09-03T02:08:01.431Z,2.03
2022-09-03T02:10:40.701Z,1.35
2022-09-03T02:13:20.492Z,2.25
2022-09-03T02:15:50.288Z,2.47
2022-09-03T02:18:25.429Z,2.17
2022-09-03T02:20:54.429Z,2.38
2022-09-03T02:23:27.585Z,1.45
2022-09-03T02:25:59.741Z,2.20
2022-09-03T02:28:29.393Z,1.60
2022-09-03T02:30:59.055Z,2.22
2022-09-03T02:33:27.342Z,1.13
2022-09-03T02:35:59.293Z,2.47
2022-09-03T02:38:26.888Z,1.95
2022-09-03T02:40:54.690Z,3.55
2022-09-03T02:43:34.139Z,1.63
2022-09-03T02:46:07.631Z,4.30
2022-09-03T02:48:35.605Z,1.60
2022-09-03T02:51:03.023Z,2.95
2022-09-03T02:53:43.922Z,1.35
2022-09-03T02:56:11.643Z,1.55
2022-09-03T02:58:43.329Z,1.20
2022-09-03T03:01:18.111Z,1.02
2022-09-03T03:03:52.547Z,2.35
2022-09-03T03:06:23.433Z,2.40
2022-09-03T03:08:56.209Z,1.27
2022-09-03T03:11:27.457Z,1.42
2022-09-03T03:13:54.708Z,2.40
2022-09-03T03:16:24.420Z,5.15
2022-09-03T03:18:52.800Z,2.42
2022-09-03T03:21:20.091Z,1.30
2022-09-03T03:23:52.072Z,3.05
2022-09-03T03:26:24.208Z,1.88
2022-09-03T03:28:59.639Z,2.83
2022-09-03T03:31:27.665Z,3.97
2022-09-03T03:33:57.347Z,4.30
2022-09-03T03:36:27.318Z,2.60
2022-09-03T03:38:57.067Z,2.70
2022-09-03T03:41:28.419Z,2.17
2022-09-03T03:44:02.227Z,2.63
2022-09-03T03:46:38.661Z,1.60
2022-09-03T03:49:06.976Z,1.30
2022-09-03T03:51:35.686Z,1.63
2022-09-03T03:54:05.482Z,1.92
2022-09-03T03:56:34.193Z,1.30
2022-09-03T03:59:01.746Z,1.85
2022-09-03T04:01:29.874Z,2.33
2022-09-03T04:03:58.958Z,2.08
2022-09-03T04:06:26.267Z,1.23
2022-09-03T04:08:56.186Z,1.70
2022-09-03T04:11:28.383Z,2.58
2022-09-03T04:13:55.673Z,1.88
2022-09-03T04:16:27.317Z,2.35
2022-09-03T04:18:56.095Z,2.22
2022-09-03T04:21:30.619Z,2.10
2022-09-03T04:24:00.400Z,2.33
2022-09-03T04:26:34.584Z,4.05
2022-09-03T04:29:07.401Z,2.22
2022-09-03T04:31:38.374Z,2.70
2022-09-03T04:34:08.064Z,4.10
2022-09-03T04:36:37.814Z,2.72
2022-09-03T04:39:07.437Z,2.08
2022-09-03T04:41:37.784Z,2.60
2022-09-03T04:44:09.807Z,2.75
2022-09-03T04:46:40.449Z,2.78
2022-09-03T04:49:12.919Z,2.50
2022-09-03T04:51:40.623Z,1.92
2022-09-03T04:54:11.042Z,3.55
2022-09-03T04:56:40.153Z,6.82
2022-09-03T04:59:09.583Z,17.83
2022-09-03T05:01:39.042Z,4.68
2022-09-03T05:04:09.257Z,4.68
2022-09-03T05:06:37.459Z,2.67
2022-09-03T05:09:06.157Z,2.28
2022-09-03T05:11:36.426Z,5.85
2022-09-03T05:14:06.840Z,3.42
2022-09-03T05:16:36.541Z,1.60
2022-09-03T05:19:08.588Z,2.92
2022-09-03T05:21:38.119Z,3.47
2022-09-03T05:24:08.170Z,3.78
2022-09-03T05:26:39.490Z,1.80
2022-09-03T05:29:08.976Z,2.97
2022-09-03T05:31:39.769Z,3.17
2022-09-03T05:34:10.160Z,3.08
2022-09-03T05:36:43.841Z,2.53
2022-09-03T05:39:11.032Z,2.47
2022-09-03T05:41:40.409Z,3.72
2022-09-03T05:44:07.647Z,3.25
2022-09-03T05:46:37.509Z,2.08
2022-09-03T05:49:11.681Z,4.80
2022-09-03T05:51:40.026Z,2.72
2022-09-03T05:54:08.870Z,1.90
2022-09-03T05:56:39.979Z,1.95
2022-09-03T05:59:09.739Z,3.95
2022-09-03T06:01:51.536Z,4.82
2022-09-03T06:04:20.613Z,4.05
2022-09-03T06:06:50.529Z,1.65
2022-09-03T06:09:21.031Z,2.72
2022-09-03T06:11:52.381Z,9.80
2022-09-03T06:14:20.381Z,2.97
2022-09-03T06:16:50.650Z,4.45
2022-09-03T06:19:18.046Z,2.63
2022-09-03T06:21:48.125Z,3.13
2022-09-03T06:24:18.274Z,5.18
2022-09-03T06:26:46.594Z,2.90
2022-09-03T06:29:14.244Z,1.48
2022-09-03T06:31:41.629Z,3.17
2022-09-03T06:34:09.042Z,1.70
2022-09-03T06:36:41.170Z,2.92
2022-09-03T06:39:08.554Z,4.72
2022-09-03T06:41:38.393Z,3.78
2022-09-03T06:44:11.923Z,2.78
2022-09-03T06:46:42.412Z,2.67
2022-09-03T06:49:11.233Z,2.70
2022-09-03T06:51:41.112Z,2.33
2022-09-03T06:54:13.519Z,3.75
2022-09-03T06:56:43.433Z,2.88
2022-09-03T06:59:15.216Z,2.13
2022-09-03T07:01:45.430Z,3.30
2022-09-03T07:04:16.650Z,5.88
2022-09-03T07:06:46.628Z,5.53
2022-09-03T07:09:18.325Z,2.28
2022-09-03T07:11:50.656Z,5.97
2022-09-03T07:14:19.766Z,2.50
2022-09-03T07:16:52.917Z,2.53
2022-09-03T07:19:20.179Z,3.15
2022-09-03T07:21:50.493Z,3.80
2022-09-03T07:24:19.855Z,2.80
2022-09-03T07:26:48.866Z,2.47
2022-09-03T07:29:19.989Z,3.00
2022-09-03T07:31:53.027Z,3.53
2022-09-03T07:34:24.136Z,4.28
2022-09-03T07:36:55.109Z,2.88
2022-09-03T07:39:22.485Z,2.15
2022-09-03T07:41:51.902Z,5.38
2022-09-03T07:44:20.088Z,2.72
2022-09-03T07:46:51.377Z,3.13
2022-09-03T07:49:21.158Z,2.72
2022-09-03T07:51:50.902Z,3.40
2022-09-03T07:54:21.850Z,3.40
2022-09-03T07:56:49.232Z,2.20
2022-09-03T07:59:16.726Z,2.78
2022-09-03T08:01:44.019Z,2.38
2022-09-03T08:04:11.842Z,3.92
2022-09-03T08:06:42.345Z,3.42
2022-09-03T08:09:13.717Z,7.63
2022-09-03T08:11:44.152Z,4.90
2022-09-03T08:14:14.536Z,45.22
2022-09-03T08:16:49.399Z,44.05
2022-09-03T08:19:20.894Z,45.95
2022-09-03T08:21:50.441Z,16.60
2022-09-03T08:24:21.331Z,8.35
2022-09-03T08:26:52.432Z,6.40
2022-09-03T08:29:21.287Z,3.05
2022-09-03T08:31:49.106Z,3.90
2022-09-03T08:34:17.780Z,2.08
2022-09-03T08:36:47.932Z,3.22
2022-09-03T08:39:15.826Z,3.05
2022-09-03T08:41:43.555Z,3.05
2022-09-03T08:44:31.608Z,8.57
2022-09-03T08:47:12.471Z,4.03
2022-09-03T08:49:51.598Z,2.17
2022-09-03T08:52:50.916Z,1.77
2022-09-03T08:55:26.207Z,2.05
2022-09-03T08:58:05.009Z,4.55
2022-09-03T09:00:41.020Z,2.28
2022-09-03T09:03:20.331Z,4.95
2022-09-03T09:06:07.226Z,8.98
2022-09-03T09:09:18.622Z,6.43
2022-09-03T09:12:01.218Z,3.80
2022-09-03T09:14:42.717Z,4.53
2022-09-03T09:17:27.963Z,3.75
2022-09-03T09:20:46.267Z,8.63
2022-09-03T09:23:36.003Z,9.63
2022-09-03T09:26:10.469Z,2.75
2022-09-03T09:28:40.073Z,2.97
2022-09-03T09:31:12.599Z,4.78
2022-09-03T09:33:39.817Z,3.70
2022-09-03T09:36:11.455Z,2.47
2022-09-03T09:38:39.844Z,2.50
2022-09-03T09:41:15.379Z,3.45
2022-09-03T09:43:47.941Z,2.72
2022-09-03T09:46:24.984Z,3.83
2022-09-03T09:48:56.855Z,4.95
2022-09-03T09:51:31.256Z,2.58
2022-09-03T09:54:16.507Z,6.88
2022-09-03T09:56:47.161Z,2.83
2022-09-03T09:59:19.639Z,18.65
2022-09-03T10:01:49.346Z,19.17
2022-09-03T10:04:33.167Z,11.98
2022-09-03T10:07:21.469Z,15.68
2022-09-03T10:10:00.196Z,58.03
2022-09-03T10:12:42.125Z,99.95
2022-09-03T10:15:37.977Z,19.42
2022-09-03T10:18:36.431Z,9.25
2022-09-03T10:21:45.930Z,4.90
2022-09-03T10:24:40.457Z,5.53
2022-09-03T10:27:14.645Z,7.03
2022-09-03T10:29:42.014Z,3.50
2022-09-03T10:32:23.047Z,3.10
2022-09-03T10:35:13.445Z,4.53
2022-09-03T10:37:58.034Z,5.35
2022-09-03T10:40:52.438Z,4.22
2022-09-03T10:43:41.719Z,4.45
2022-09-03T10:46:11.832Z,6.88
2022-09-03T10:49:18.861Z,5.47
2022-09-03T10:52:09.249Z,9.00
2022-09-03T10:54:52.719Z,3.55
2022-09-03T10:57:31.805Z,5.32
2022-09-03T10:59:58.951Z,21.88
2022-09-03T11:02:47.559Z,9.00
2022-09-03T11:05:32.838Z,4.18
2022-09-03T11:08:09.809Z,3.67
2022-09-03T11:10:44.020Z,5.75
2022-09-03T11:13:22.934Z,21.23
2022-09-03T11:16:04.657Z,14.60
2022-09-03T11:18:41.205Z,12.20
2022-09-03T11:21:14.029Z,6.70
2022-09-03T11:23:45.025Z,8.80
2022-09-03T11:26:17.268Z,4.07
2022-09-03T11:28:56.695Z,5.53
2022-09-03T11:31:57.751Z,2.95
2022-09-03T11:34:32.006Z,4.18
2022-09-03T11:37:19.855Z,5.50
2022-09-03T11:40:08.011Z,2.80
2022-09-03T11:42:42.443Z,5.65
2022-09-03T11:45:14.820Z,3.33
2022-09-03T11:47:44.689Z,3.28
2022-09-03T11:50:21.286Z,2.80
2022-09-03T11:52:52.124Z,2.53
2022-09-03T11:55:43.468Z,3.05
2022-09-03T11:58:27.565Z,5.60
2022-09-03T12:00:56.140Z,7.47
2022-09-03T12:03:29.102Z,3.78
2022-09-03T12:06:22.470Z,3.55
2022-09-03T12:08:58.195Z,4.45
2022-09-03T12:11:49.695Z,2.72
2022-09-03T12:14:22.953Z,3.10
2022-09-03T12:17:14.349Z,2.28
2022-09-03T12:19:55.579Z,5.22
2022-09-03T12:22:26.175Z,3.17
2022-09-03T12:24:53.501Z,2.47
2022-09-03T12:27:26.689Z,3.45
2022-09-03T12:30:02.959Z,2.42
2022-09-03T12:32:39.381Z,2.50
2022-09-03T12:38:29.432Z,2.08
2022-09-03T12:43:52.889Z,2.63
2022-09-03T12:46:33.713Z,4.03
2022-09-03T12:52:06.681Z,4.57
2022-09-03T12:54:50.252Z,4.20
2022-09-03T12:57:22.615Z,2.22
2022-09-03T12:59:57.008Z,3.17
2022-09-03T13:02:36.299Z,1.80
2022-09-03T13:05:05.219Z,2.83
2022-09-03T13:07:38.237Z,2.45
2022-09-03T13:10:29.013Z,3.08
2022-09-03T13:13:03.593Z,4.85
2022-09-03T13:15:33.219Z,2.72
2022-09-03T13:18:19.838Z,2.78
2022-09-03T13:21:24.574Z,3.17
2022-09-03T13:24:06.938Z,4.38
2022-09-03T13:26:47.962Z,3.13
2022-09-03T13:29:37.261Z,4.03
2022-09-03T13:32:25.969Z,2.38
2022-09-03T13:35:05.621Z,2.38
2022-09-03T13:37:58.129Z,3.67
2022-09-03T13:40:55.705Z,2.30
2022-09-03T13:43:37.644Z,4.75
2022-09-03T13:46:13.131Z,2.63
2022-09-03T13:49:00.421Z,3.28
2022-09-03T13:51:39.806Z,2.40
2022-09-03T13:54:42.597Z,2.20
2022-09-03T13:57:27.028Z,5.32
2022-09-03T14:00:10.301Z,3.17
2022-09-03T14:03:16.147Z,1.92
2022-09-03T14:06:18.613Z,3.60
2022-09-03T14:09:44.048Z,2.50
2022-09-03T14:12:35.944Z,2.38
2022-09-03T14:15:26.068Z,2.25
2022-09-03T14:18:15.904Z,3.17
2022-09-03T14:20:56.533Z,3.28
2022-09-03T14:23:38.016Z,3.47
2022-09-03T14:26:16.495Z,2.58
2022-09-03T14:29:07.925Z,2.88
2022-09-03T14:31:52.462Z,2.90
2022-09-03T14:34:45.809Z,2.75
2022-09-03T14:37:56.309Z,2.40
2022-09-03T14:40:43.841Z,2.40
2022-09-03T14:43:49.474Z,2.35
2022-09-03T14:46:46.947Z,4.78
2022-09-03T14:49:35.923Z,2.67
2022-09-03T14:52:42.292Z,2.35
2022-09-03T14:55:18.445Z,2.97
2022-09-03T14:58:10.183Z,4.35
2022-09-03T15:00:58.139Z,2.03
2022-09-03T15:03:42.002Z,3.70
2022-09-03T15:06:15.691Z,3.78
2022-09-03T15:08:49.052Z,3.08
2022-09-03T15:11:18.658Z,2.95
2022-09-03T15:13:54.112Z,2.80
2022-09-03T15:17:09.872Z,2.10
2022-09-03T15:19:45.892Z,4.50
2022-09-03T15:22:39.986Z,2.33
2022-09-03T15:25:23.703Z,2.58
2022-09-03T15:28:02.829Z,4.05
2022-09-03T15:31:03.143Z,3.00
2022-09-03T15:33:36.189Z,2.70
2022-09-03T15:36:26.420Z,2.47
2022-09-03T15:39:01.309Z,2.33
2022-09-03T15:41:39.922Z,3.63
2022-09-03T15:44:18.972Z,2.92
2022-09-03T15:47:14.155Z,3.60
2022-09-03T15:50:01.621Z,2.67
2022-09-03T15:53:25.432Z,2.72
2022-09-03T15:56:30.308Z,2.25
2022-09-03T15:59:24.754Z,3.10
2022-09-03T16:01:57.789Z,2.85
2022-09-03T16:05:06.040Z,3.40
2022-09-03T16:07:42.479Z,2.85
2022-09-03T16:10:25.082Z,2.25
2022-09-03T16:13:14.732Z,2.53
2022-09-03T16:15:51.899Z,1.88
2022-09-03T16:18:30.485Z,2.03
2022-09-03T16:21:10.103Z,2.72
2022-09-03T16:23:45.969Z,2.22
2022-09-03T16:26:30.003Z,7.47
2022-09-03T16:29:26.048Z,4.93
2022-09-03T16:32:21.272Z,3.45
2022-09-03T16:35:10.773Z,2.85
2022-09-03T16:38:04.550Z,10.82
2022-09-03T16:40:37.303Z,5.25
2022-09-03T16:43:39.665Z,2.90
2022-09-03T16:46:26.012Z,2.78
2022-09-03T16:48:59.051Z,3.13
2022-09-03T16:51:47.863Z,3.42
2022-09-03T16:54:50.224Z,2.13
2022-09-03T16:57:29.895Z,3.80
2022-09-03T17:00:14.747Z,2.75
2022-09-03T17:03:03.835Z,2.08
2022-09-03T17:05:56.985Z,2.15
2022-09-03T17:09:02.103Z,1.58
2022-09-03T17:11:34.413Z,1.33
2022-09-03T17:14:08.457Z,1.40
2022-09-03T17:17:05.994Z,1.38
2022-09-03T17:19:51.587Z,2.45
2022-09-03T17:23:09.855Z,1.52
2022-09-03T17:25:39.729Z,1.95
2022-09-03T17:28:12.778Z,2.97
2022-09-03T17:31:21.552Z,1.98
2022-09-03T17:34:02.657Z,2.20
2022-09-03T17:36:32.270Z,3.00
2022-09-03T17:39:29.528Z,2.97
2022-09-03T17:42:11.983Z,2.63
2022-09-03T17:45:11.326Z,2.72
2022-09-03T17:47:55.324Z,2.40
2022-09-03T17:50:28.258Z,2.40
2022-09-03T17:53:26.855Z,2.05
2022-09-03T17:56:04.270Z,3.28
2022-09-03T17:58:51.946Z,2.45
2022-09-03T18:01:27.242Z,2.72
2022-09-03T18:03:57.517Z,2.70
2022-09-03T18:06:41.606Z,3.75
2022-09-03T18:09:44.052Z,2.72
2022-09-03T18:12:22.899Z,2.65
2022-09-03T18:14:56.676Z,4.20
2022-09-03T18:17:45.060Z,4.97
2022-09-03T18:20:33.371Z,3.75
2022-09-03T18:23:51.175Z,3.00
2022-09-03T18:26:48.270Z,2.65
2022-09-03T18:29:50.103Z,2.47
2022-09-03T18:32:39.732Z,2.40
2022-09-03T18:35:28.075Z,2.50
2022-09-03T18:38:16.642Z,3.35
2022-09-03T18:41:09.526Z,2.78
2022-09-03T18:44:21.716Z,2.67
2022-09-03T18:50:44.395Z,3.67
2022-09-03T18:53:59.112Z,2.42
2022-09-03T18:56:50.907Z,2.85
2022-09-03T18:59:55.669Z,4.00
2022-09-03T19:03:12.006Z,7.15
2022-09-03T19:06:40.562Z,3.17
2022-09-03T19:09:31.013Z,3.42
2022-09-03T19:12:59.441Z,2.92
2022-09-03T19:15:58.779Z,2.38
2022-09-03T19:19:24.692Z,2.53
2022-09-03T19:22:18.065Z,3.65
2022-09-03T19:25:11.328Z,3.90
2022-09-03T19:28:05.222Z,2.72
2022-09-03T19:31:15.272Z,2.85
2022-09-03T19:34:54.018Z,2.97
2022-09-03T19:37:56.049Z,1.98
2022-09-03T19:40:56.952Z,3.08
2022-09-03T19:44:06.336Z,2.28
2022-09-03T19:47:17.539Z,2.60
2022-09-03T19:50:40.276Z,3.80
2022-09-03T19:53:33.822Z,2.38
2022-09-03T19:56:27.889Z,2.03
2022-09-03T19:59:21.947Z,2.33
2022-09-03T20:02:10.735Z,5.30
2022-09-03T20:05:12.264Z,3.47
2022-09-03T20:07:58.256Z,3.80
2022-09-03T20:10:30.307Z,3.53
2022-09-03T20:13:20.661Z,4.45
2022-09-03T20:15:53.744Z,5.30
2022-09-03T20:18:38.517Z,5.60
2022-09-03T20:21:21.046Z,2.28
2022-09-03T20:24:06.119Z,3.10
2022-09-03T20:26:55.931Z,3.28
2022-09-03T20:29:39.636Z,2.10
2022-09-03T20:32:34.821Z,2.65
2022-09-03T20:35:16.730Z,2.17
2022-09-03T20:38:03.632Z,3.47
2022-09-03T20:40:39.643Z,2.50
2022-09-03T20:43:33.261Z,2.35
2022-09-03T20:46:30.219Z,2.63
2022-09-03T20:49:22.085Z,2.45
2022-09-03T20:52:32.598Z,2.83
2022-09-03T20:55:22.231Z,1.98
2022-09-03T20:58:16.534Z,1.70
2022-09-03T21:01:00.690Z,1.85
2022-09-03T21:03:52.942Z,3.15
2022-09-03T21:06:31.319Z,2.22
2022-09-03T21:09:32.305Z,4.07
2022-09-03T21:12:20.054Z,3.92
2022-09-03T21:15:18.390Z,2.90
2022-09-03T21:18:01.898Z,3.92
2022-09-03T21:20:58.141Z,2.50
2022-09-03T21:23:33.943Z,2.85
2022-09-03T21:26:15.166Z,2.08
2022-09-03T21:28:49.119Z,3.13
2022-09-03T21:31:24.569Z,3.33
2022-09-03T21:34:01.595Z,3.03
2022-09-03T21:36:35.137Z,3.28
2022-09-03T21:39:25.888Z,2.17
2022-09-03T21:42:24.909Z,6.07
2022-09-03T21:45:01.398Z,3.58
2022-09-03T21:47:37.648Z,5.30
2022-09-03T21:50:24.475Z,2.42
2022-09-03T21:53:17.297Z,2.67
2022-09-03T21:56:12.099Z,2.92
2022-09-03T21:58:59.831Z,2.25
2022-09-03T22:01:41.764Z,5.53
2022-09-03T22:04:09.541Z,2.83
2022-09-03T22:06:57.478Z,3.00
2022-09-03T22:09:46.446Z,3.70
2022-09-03T22:12:17.353Z,4.43
2022-09-03T22:14:53.532Z,2.60
2022-09-03T22:17:54.413Z,3.08
2022-09-03T22:20:25.541Z,2.97
2022-09-03T22:23:05.958Z,2.78
2022-09-03T22:25:49.917Z,6.35
2022-09-03T22:28:20.287Z,3.53
2022-09-03T22:31:00.874Z,2.90
2022-09-03T22:33:34.957Z,2.55
2022-09-03T22:36:02.115Z,3.65
2022-09-03T22:38:57.111Z,3.45
2022-09-03T22:41:45.896Z,2.85
2022-09-03T22:44:34.364Z,4.72
2022-09-03T22:47:46.442Z,3.85
2022-09-03T22:50:36.532Z,3.10
2022-09-03T22:53:40.601Z,4.68
2022-09-03T22:56:09.738Z,3.35
2022-09-03T22:58:47.884Z,5.28
2022-09-03T23:01:39.159Z,3.28
2022-09-03T23:04:29.322Z,2.92
2022-09-03T23:07:25.693Z,3.20
2022-09-03T23:10:25.640Z,4.63
2022-09-03T23:13:18.323Z,4.82
2022-09-03T23:15:51.516Z,3.47
2022-09-03T23:18:27.024Z,2.75
2022-09-03T23:21:11.366Z,2.80
2022-09-03T23:23:50.499Z,4.40
2022-09-03T23:26:59.161Z,5.50
2022-09-03T23:29:38.899Z,3.38
2022-09-03T23:32:09.416Z,3.45
2022-09-03T23:34:40.071Z,3.35
2022-09-03T23:37:32.972Z,3.88
2022-09-03T23:40:04.882Z,4.55
2022-09-03T23:43:05.870Z,4.43
2022-09-03T23:45:36.185Z,2.90
2022-09-03T23:48:18.403Z,5.50
2022-09-03T23:51:04.408Z,2.97
2022-09-03T23:53:43.644Z,4.68
2022-09-03T23:56:32.034Z,3.88
2022-09-03T23:59:28.527Z,2.67
